Time;durP1;ratioP1;P1;durP2;ratioP2;P2;SDS_P1;SDS_P2;PMS_P1;PMS_P2;Temp;Humidity;BMP_temperature;BMP_pressure;BME280_temperature;BME280_humidity;BME280_pressure;Samples;Min_cycle;Max_cycle;Signal;HPM_P1;HPM_P2
2021/07/14 00:00:18;;;;;;;;;;;;;;;21.59;51.72;95225.88;1045635;28;714;-73
2021/07/14 00:00:49;;;;;;;;;;;;;;;21.59;51.83;95225.88;1045199;28;1095;-74
2021/07/14 00:01:19;;;;;;;;;;;;;;;21.58;51.93;95230.34;1045172;28;1091;-73
2021/07/14 00:01:49;;;;;;;;;;;;;;;21.59;51.98;95233.78;1045278;28;1190;-74
2021/07/14 00:02:19;;;;;;;;;;;;;;;21.59;51.85;95233.78;1045316;28;709;-74
2021/07/14 00:02:50;;;;;;;;;;;;;;;21.58;51.86;95232.19;1040092;28;1230;-74
2021/07/14 00:03:20;;;;;;;;;;;;;;;21.58;51.93;95230.34;1040997;28;1251;-73
2021/07/14 00:03:50;;;;;;;;;;;;;;;21.58;51.75;95232.19;1039055;28;2212;-73
2021/07/14 00:04:21;;;;;;;;;;;;;;;21.59;51.84;95225.88;1038538;28;2372;-73
2021/07/14 00:04:51;;;;;;;;;;;;;;;21.58;51.82;95219.00;1037348;28;1969;-74
2021/07/14 00:05:21;;;;;;;;;;;;;;;21.58;51.87;95211.88;1037083;28;759;-73
2021/07/14 00:05:52;;;;;;;;;;;;;;;21.59;52.02;95212.69;1037560;28;1634;-74
2021/07/14 00:06:22;;;;;;;;;;;;;;;21.59;52.00;95207.41;1036890;28;1281;-73
2021/07/14 00:06:52;;;;;;;;;;;;;;;21.58;51.97;95200.56;1037037;28;1329;-75
2021/07/14 00:07:23;;;;;;;;;;;;;;;21.59;51.78;95196.84;1045550;28;1449;-74
2021/07/14 00:07:53;;;;;;;;;;;;;;;21.58;51.93;95196.06;1046247;28;1214;-74
2021/07/14 00:08:23;;;;;;;;;;;;;;;21.58;51.70;95195.28;1044349;28;797;-73
2021/07/14 00:08:54;;;;;;;;;;;;;;;21.58;51.90;95198.69;1047953;28;1306;-73
2021/07/14 00:09:24;;;;;;;;;;;;;;;21.57;51.69;95188.44;1038339;28;2348;-74
2021/07/14 00:09:54;;;;;;;;;;;;;;;21.58;51.74;95188.16;1039831;28;1346;-74
2021/07/14 00:10:29;;;;;;;;;;;;;;;21.57;51.86;95188.44;1045294;28;733;-73
2021/07/14 00:10:59;;;;;;;;;;;;;;;21.58;51.86;95190.00;1045065;28;1193;-73
2021/07/14 00:11:36;;;;;;;;;;;;;;;21.57;51.90;95188.44;1045546;28;809;-73
2021/07/14 00:12:09;;;;;;;;;;;;;;;21.56;51.70;95185.03;1045592;28;1202;-73
2021/07/14 00:12:50;;;;;;;;;;;;;;;21.57;51.77;95181.34;1044282;28;1557;-74
2021/07/14 00:13:25;;;;;;;;;;;;;;;21.57;51.64;95188.44;1044917;28;1349;-74
2021/07/14 00:14:26;;;;;;;;;;;;;;;21.57;51.78;95183.19;1044492;28;1147;-73
2021/07/14 00:17:01;;;;;;;;;;;;;;;21.57;51.57;95183.19;1042393;28;1214;-73
2021/07/14 00:17:47;;;;;;;;;;;;;;;21.56;51.43;95171.06;1038877;28;1253;-74
2021/07/14 00:22:23;;;;;;;;;;;;;;;21.52;51.43;95155.03;1044353;28;2766;-74
2021/07/14 00:22:53;;;;;;;;;;;;;;;21.52;51.62;95164.81;1045152;28;1147;-74
2021/07/14 00:23:23;;;;;;;;;;;;;;;21.53;51.69;95158.47;1044496;28;804;-73
2021/07/14 00:23:54;;;;;;;;;;;;;;;21.52;51.42;95154.25;1044403;28;1672;-72
2021/07/14 00:24:24;;;;;;;;;;;;;;;21.52;51.65;95154.25;1046265;28;2323;-73
2021/07/14 00:24:54;;;;;;;;;;;;;;;21.52;51.54;95159.53;1040324;28;1919;-73
2021/07/14 00:25:25;;;;;;;;;;;;;;;21.52;51.56;95156.88;1036478;28;1334;-74
2021/07/14 00:25:55;;;;;;;;;;;;;;;21.52;51.75;95159.53;1038651;28;1078;-73
2021/07/14 00:26:25;;;;;;;;;;;;;;;21.52;51.67;95160.31;1040002;28;2404;-74
2021/07/14 00:26:56;;;;;;;;;;;;;;;21.53;51.51;95150.56;1044248;28;1206;-74
2021/07/14 00:27:26;;;;;;;;;;;;;;;21.53;51.75;95155.84;1048730;28;1123;-74
2021/07/14 00:27:56;;;;;;;;;;;;;;;21.53;51.53;95155.84;1046897;28;1120;-74
2021/07/14 00:28:27;;;;;;;;;;;;;;;21.53;51.65;95161.09;1040785;28;2321;-73
2021/07/14 00:28:57;;;;;;;;;;;;;;;21.53;51.72;95158.47;1036828;28;1201;-73
2021/07/14 00:29:27;;;;;;;;;;;;;;;21.54;51.65;95165.28;1036968;28;1191;-73
2021/07/14 00:30:06;;;;;;;;;;;;;;;21.52;51.56;95164.81;1033302;28;2698;-73
2021/07/14 00:30:37;;;;;;;;;;;;;;;21.53;51.54;95169.03;1038134;28;843;-73
2021/07/14 00:31:13;;;;;;;;;;;;;;;21.53;51.79;95167.16;1044747;28;1270;-74
2021/07/14 00:31:44;;;;;;;;;;;;;;;21.53;51.68;95172.44;1045343;28;1147;-73
2021/07/14 00:32:14;;;;;;;;;;;;;;;21.53;51.54;95179.56;1045622;28;787;-74
2021/07/14 00:32:44;;;;;;;;;;;;;;;21.53;51.69;95171.66;1045437;28;1150;-73
2021/07/14 00:33:15;;;;;;;;;;;;;;;21.53;51.87;95171.66;1043204;28;1973;-73
2021/07/14 00:33:45;;;;;;;;;;;;;;;21.53;51.72;95176.94;1045486;28;1186;-73
2021/07/14 00:34:16;;;;;;;;;;;;;;;21.53;51.79;95176.94;1045494;28;1142;-75
2021/07/14 00:34:46;;;;;;;;;;;;;;;21.53;51.86;95176.94;1045260;28;1119;-73
2021/07/14 00:35:16;;;;;;;;;;;;;;;21.53;52.06;95179.56;1044959;28;2628;-73
2021/07/14 00:35:46;;;;;;;;;;;;;;;21.53;51.98;95172.44;1045201;28;1164;-72
2021/07/14 00:36:17;;;;;;;;;;;;;;;21.53;51.72;95174.28;1049272;28;525;-73
2021/07/14 00:36:47;;;;;;;;;;;;;;;21.54;51.74;95178.47;1042031;28;1446;-73
2021/07/14 00:37:20;;;;;;;;;;;;;;;21.54;51.68;95175.84;1042866;28;1420;-74
2021/07/14 00:37:51;;;;;;;;;;;;;;;21.53;52.19;95177.72;1044136;28;1205;-73
2021/07/14 00:38:21;;;;;;;;;;;;;;;21.54;52.00;95175.84;1036378;28;1244;-74
2021/07/14 00:38:51;;;;;;;;;;;;;;;21.54;52.00;95170.56;1040938;28;1291;-73
2021/07/14 00:39:21;;;;;;;;;;;;;;;21.53;51.89;95169.03;1045372;28;771;-74
2021/07/14 00:39:55;;;;;;;;;;;;;;;21.54;52.02;95168.72;1047895;28;1267;-74
2021/07/14 00:40:26;;;;;;;;;;;;;;;21.54;51.86;95168.72;1041376;28;2502;-74
2021/07/14 00:40:56;;;;;;;;;;;;;;;21.53;52.06;95169.81;1040966;28;1977;-75
2021/07/14 00:41:26;;;;;;;;;;;;;;;21.52;51.84;95160.31;1040975;28;1662;-74
2021/07/14 00:41:57;;;;;;;;;;;;;;;21.51;51.85;95166.69;1045103;28;1051;-72
2021/07/14 00:42:27;;;;;;;;;;;;;;;21.53;51.96;95166.38;1041100;28;1073;-73
2021/07/14 00:42:57;;;;;;;;;;;;;;;21.52;52.05;95170.06;1042847;28;1179;-74
2021/07/14 00:43:28;;;;;;;;;;;;;;;21.52;51.96;95170.88;1043301;28;1099;-74
2021/07/14 00:43:58;;;;;;;;;;;;;;;21.53;52.00;95182.19;1042770;28;1132;-75
2021/07/14 00:44:28;;;;;;;;;;;;;;;21.54;51.81;95194.31;1049145;28;691;-73
2021/07/14 00:44:59;;;;;;;;;;;;;;;21.53;51.97;95195.38;1046828;28;2288;-72
2021/07/14 00:45:30;;;;;;;;;;;;;;;21.54;52.06;95196.94;1041234;28;2359;-74
2021/07/14 00:46:19;;;;;;;;;;;;;;;21.53;52.02;95198.81;1038836;28;1212;-74
2021/07/14 00:46:50;;;;;;;;;;;;;;;21.52;52.02;95193.81;1042775;28;1214;-73
2021/07/14 00:47:25;;;;;;;;;;;;;;;21.53;51.74;95205.94;1036921;28;1331;-74
2021/07/14 00:47:58;;;;;;;;;;;;;;;21.53;51.79;95205.94;1037412;28;1280;-74
2021/07/14 00:48:28;;;;;;;;;;;;;;;21.53;51.75;95203.31;1037617;28;1242;-73
2021/07/14 00:48:59;;;;;;;;;;;;;;;21.52;52.02;95202.50;1036794;28;1196;-74
2021/07/14 00:49:29;;;;;;;;;;;;;;;21.52;51.79;95205.16;1040829;28;1001;-74
2021/07/14 00:50:00;;;;;;;;;;;;;;;21.52;51.78;95199.09;1036366;28;2271;-72
2021/07/14 00:50:30;;;;;;;;;;;;;;;21.52;51.85;95201.72;1035464;28;2551;-73
2021/07/14 00:51:01;;;;;;;;;;;;;;;21.52;52.03;95207.78;1039153;28;1216;-74
2021/07/14 00:51:31;;;;;;;;;;;;;;;21.52;51.96;95207.78;1041184;28;963;-74
2021/07/14 00:52:01;;;;;;;;;;;;;;;21.53;51.91;95205.94;1047664;28;1254;-74
2021/07/14 00:52:32;;;;;;;;;;;;;;;21.53;51.84;95216.50;1045270;28;969;-74
2021/07/14 00:53:03;;;;;;;;;;;;;;;21.53;51.89;95211.22;1040771;28;1467;-74
2021/07/14 00:53:34;;;;;;;;;;;;;;;21.52;51.98;95212.28;1040431;28;1187;-74
2021/07/14 00:54:04;;;;;;;;;;;;;;;21.52;51.95;95217.53;1040743;28;1222;-74
2021/07/14 00:54:34;;;;;;;;;;;;;;;21.52;51.99;95222.81;1041174;28;652;-74
2021/07/14 00:55:05;;;;;;;;;;;;;;;21.52;52.00;95222.81;1043881;28;2356;-74
2021/07/14 00:55:35;;;;;;;;;;;;;;;21.52;51.96;95218.34;1045299;28;1061;-73
2021/07/14 00:56:05;;;;;;;;;;;;;;;21.52;51.91;95222.81;1045184;28;1103;-74
2021/07/14 00:56:36;;;;;;;;;;;;;;;21.54;51.81;95225.94;1044859;28;1238;-73
2021/07/14 00:57:07;;;;;;;;;;;;;;;21.52;52.01;95223.59;1040497;28;1624;-74
2021/07/14 00:57:37;;;;;;;;;;;;;;;21.52;51.83;95220.97;1036811;28;1262;-73
2021/07/14 00:58:07;;;;;;;;;;;;;;;21.52;51.74;95222.81;1036174;28;1949;-74
2021/07/14 00:58:38;;;;;;;;;;;;;;;21.50;52.13;95220.47;1040817;28;1171;-74
2021/07/14 00:59:08;;;;;;;;;;;;;;;21.51;51.97;95222.06;1044117;28;1140;-73
2021/07/14 00:59:38;;;;;;;;;;;;;;;21.51;51.82;95223.91;1044950;28;2656;-74
2021/07/14 01:00:09;;;;;;;;;;;;;;;21.51;52.17;95227.34;1041085;28;2537;-73
2021/07/14 01:00:40;;;;;;;;;;;;;;;21.51;52.00;95227.34;1036671;28;1076;-74
2021/07/14 01:01:10;;;;;;;;;;;;;;;21.52;52.04;95228.09;1039787;28;1232;-74
2021/07/14 01:01:42;;;;;;;;;;;;;;;21.51;51.77;95224.69;1041171;28;2491;-73
2021/07/14 01:02:13;;;;;;;;;;;;;;;21.51;52.04;95226.53;1040737;28;1244;-73
2021/07/14 01:02:43;;;;;;;;;;;;;;;21.51;51.83;95219.41;1032967;28;2617;-74
2021/07/14 01:03:13;;;;;;;;;;;;;;;21.52;51.99;95228.09;1034192;28;1085;-73
2021/07/14 01:03:52;;;;;;;;;;;;;;;21.53;52.03;95224.41;1028098;28;2877;-73
2021/07/14 01:04:22;;;;;;;;;;;;;;;21.52;51.85;95222.81;1028223;28;2282;-74
2021/07/14 01:05:03;;;;;;;;;;;;;;;21.51;52.03;95223.91;1031942;28;1976;-74
2021/07/14 01:05:34;;;;;;;;;;;;;;;21.50;51.78;95220.47;1035037;28;2223;-73
2021/07/14 01:06:04;;;;;;;;;;;;;;;21.51;52.05;95218.63;1035433;28;1093;-74
2021/07/14 01:06:43;;;;;;;;;;;;;;;21.52;51.68;95222.81;1038350;28;769;-74
2021/07/14 01:07:16;;;;;;;;;;;;;;;21.50;51.71;95215.22;1040755;28;1267;-73
2021/07/14 01:07:49;;;;;;;;;;;;;;;21.50;51.97;95219.69;1038309;28;1175;-73
2021/07/14 01:08:27;;;;;;;;;;;;;;;21.51;51.77;95208.09;1031773;28;1159;-73
2021/07/14 01:08:59;;;;;;;;;;;;;;;21.51;51.90;95218.63;1034016;28;1189;-74
2021/07/14 01:09:31;;;;;;;;;;;;;;;21.50;51.96;95219.69;1033775;28;1887;-73
2021/07/14 01:10:03;;;;;;;;;;;;;;;21.50;51.85;95214.41;1038063;28;1263;-72
2021/07/14 01:10:35;;;;;;;;;;;;;;;21.51;51.93;95221.28;1035805;28;2885;-74
2021/07/14 01:11:09;;;;;;;;;;;;;;;21.51;51.92;95223.91;1031871;28;1284;-74
2021/07/14 01:11:40;;;;;;;;;;;;;;;21.50;51.79;95219.69;1032864;28;998;-73
2021/07/14 01:12:11;;;;;;;;;;;;;;;21.51;51.96;95223.91;1026119;28;1730;-74
2021/07/14 01:12:56;;;;;;;;;;;;;;;21.50;51.58;95223.13;1030149;28;1038;-73
2021/07/14 01:13:35;;;;;;;;;;;;;;;21.49;51.93;95218.94;1041008;28;1156;-74
2021/07/14 01:14:09;;;;;;;;;;;;;;;21.50;51.79;95219.69;1038794;28;1196;-74
2021/07/14 01:15:02;;;;;;;;;;;;;;;21.49;51.80;95218.94;1040825;28;1073;-74
2021/07/14 01:15:36;;;;;;;;;;;;;;;21.49;51.76;95212.88;1021142;28;2462;-74
2021/07/14 01:16:07;;;;;;;;;;;;;;;21.50;52.06;95217.84;1043002;28;1132;-74
2021/07/14 01:16:41;;;;;;;;;;;;;;;21.49;51.77;95213.66;1046644;28;1166;-74
2021/07/14 01:17:12;;;;;;;;;;;;;;;21.50;52.06;95214.41;1041611;28;1215;-74
2021/07/14 01:18:01;;;;;;;;;;;;;;;21.51;51.96;95218.63;1045099;28;772;-73
2021/07/14 01:18:39;;;;;;;;;;;;;;;21.50;51.90;95217.06;1037107;28;1777;-74
2021/07/14 01:19:09;;;;;;;;;;;;;;;21.50;52.02;95220.47;1039842;28;1135;-74
2021/07/14 01:19:42;;;;;;;;;;;;;;;21.51;51.86;95223.91;1043710;28;1138;-74
2021/07/14 01:20:33;;;;;;;;;;;;;;;21.50;51.78;95222.31;1040242;28;2464;-74
2021/07/14 01:21:04;;;;;;;;;;;;;;;21.51;51.90;95221.28;1042107;28;1343;-74
2021/07/14 01:21:36;;;;;;;;;;;;;;;21.50;52.04;95231.03;1040734;28;1222;-74
2021/07/14 01:22:10;;;;;;;;;;;;;;;21.50;52.05;95230.25;1032247;28;2542;-73
2021/07/14 01:22:49;;;;;;;;;;;;;;;21.51;52.11;95234.47;1033328;28;1422;-73
2021/07/14 01:23:19;;;;;;;;;;;;;;;21.51;52.03;95232.59;1035373;28;1200;-73
2021/07/14 01:23:49;;;;;;;;;;;;;;;21.50;52.10;95236.31;1037123;28;1191;-73
2021/07/14 01:24:40;;;;;;;;;;;;;;;21.52;51.91;95243.91;1038036;28;1251;-73
2021/07/14 01:25:16;;;;;;;;;;;;;;;21.51;52.21;95231.81;1039812;28;2620;-73
2021/07/14 01:25:52;;;;;;;;;;;;;;;21.50;51.90;95240.78;1040897;28;1109;-74
2021/07/14 01:26:42;;;;;;;;;;;;;;;21.50;52.06;95241.56;1040848;28;804;-74
2021/07/14 01:27:15;;;;;;;;;;;;;;;21.51;51.83;95234.47;1044503;28;1132;-74
2021/07/14 01:27:45;;;;;;;;;;;;;;;21.50;52.12;95243.44;1041631;28;1371;-74
2021/07/14 01:28:16;;;;;;;;;;;;;;;21.51;51.99;95247.63;1040560;28;1329;-74
2021/07/14 01:28:47;;;;;;;;;;;;;;;21.50;51.99;95248.69;1036533;28;1230;-74
2021/07/14 01:29:17;;;;;;;;;;;;;;;21.50;52.08;95249.50;1032650;28;711;-73
2021/07/14 01:29:52;;;;;;;;;;;;;;;21.51;52.06;95247.63;1031416;28;2839;-73
2021/07/14 01:30:22;;;;;;;;;;;;;;;21.51;51.99;95252.91;1033796;28;2362;-74
2021/07/14 01:30:52;;;;;;;;;;;;;;;21.50;52.15;95248.69;1032107;28;1525;-73
2021/07/14 01:31:23;;;;;;;;;;;;;;;21.50;52.07;95246.06;1037026;28;1272;-73
2021/07/14 01:31:53;;;;;;;;;;;;;;;21.51;52.21;95251.06;1040391;28;1297;-73
2021/07/14 01:32:24;;;;;;;;;;;;;;;21.50;52.12;95253.97;1036934;28;1203;-73
2021/07/14 01:32:54;;;;;;;;;;;;;;;21.51;52.06;95250.28;1038086;28;1557;-74
2021/07/14 01:33:27;;;;;;;;;;;;;;;21.49;52.29;95244.50;1037222;28;1170;-73
2021/07/14 01:33:57;;;;;;;;;;;;;;;21.50;52.15;95241.56;1032277;28;1428;-73
2021/07/14 01:34:28;;;;;;;;;;;;;;;21.49;52.21;95242.66;1036700;28;844;-74
2021/07/14 01:34:58;;;;;;;;;;;;;;;21.51;51.88;95223.91;1036763;28;1139;-74
2021/07/14 01:35:30;;;;;;;;;;;;;;;21.50;52.12;95224.97;1036893;28;2331;-73
2021/07/14 01:36:01;;;;;;;;;;;;;;;21.50;52.39;95217.84;1036513;28;1037;-74
2021/07/14 01:36:32;;;;;;;;;;;;;;;21.50;51.97;95209.94;1028882;28;1507;-73
2021/07/14 01:37:02;;;;;;;;;;;;;;;21.51;52.28;95216.00;1032784;28;1145;-73
2021/07/14 01:37:32;;;;;;;;;;;;;;;21.51;51.90;95205.44;1036971;28;1065;-74
2021/07/14 01:38:02;;;;;;;;;;;;;;;21.50;52.11;95201.22;1033543;28;1679;-74
2021/07/14 01:38:34;;;;;;;;;;;;;;;21.50;52.07;95199.38;1032033;28;1203;-73
2021/07/14 01:39:05;;;;;;;;;;;;;;;21.49;52.27;95197.03;1042160;28;1140;-74
2021/07/14 01:39:35;;;;;;;;;;;;;;;21.50;52.20;95203.88;1035776;28;1322;-73
2021/07/14 01:40:06;;;;;;;;;;;;;;;21.49;52.33;95200.47;1035587;28;1326;-74
2021/07/14 01:40:36;;;;;;;;;;;;;;;21.49;52.21;95202.31;1029853;28;2622;-74
2021/07/14 01:41:06;;;;;;;;;;;;;;;21.50;52.12;95203.88;1031550;28;1148;-73
2021/07/14 01:41:37;;;;;;;;;;;;;;;21.49;52.13;95204.97;1034720;28;1479;-72
2021/07/14 01:42:07;;;;;;;;;;;;;;;21.50;52.19;95209.94;1035643;28;1191;-73
2021/07/14 01:42:37;;;;;;;;;;;;;;;21.49;51.98;95207.59;1036799;28;687;-73
2021/07/14 01:43:08;;;;;;;;;;;;;;;21.49;52.26;95204.97;1036710;28;1164;-73
2021/07/14 01:43:39;;;;;;;;;;;;;;;21.50;51.90;95209.16;1036714;28;1171;-74
2021/07/14 01:44:10;;;;;;;;;;;;;;;21.49;52.07;95202.31;1036112;28;1341;-73
2021/07/14 01:44:40;;;;;;;;;;;;;;;21.48;51.95;95200.75;1027586;28;1971;-73
2021/07/14 01:45:12;;;;;;;;;;;;;;;21.49;51.85;95197.03;1028018;28;1225;-74
2021/07/14 01:45:42;;;;;;;;;;;;;;;21.48;52.33;95193.63;1031254;28;2856;-74
2021/07/14 01:46:12;;;;;;;;;;;;;;;21.49;52.33;95194.41;1028402;28;1507;-74
2021/07/14 01:46:42;;;;;;;;;;;;;;;21.48;52.09;95183.06;1030109;28;1410;-74
2021/07/14 01:47:13;;;;;;;;;;;;;;;21.50;52.30;95180.13;1032788;28;1260;-74
2021/07/14 01:47:43;;;;;;;;;;;;;;;21.48;52.33;95172.53;1032080;28;1898;-72
2021/07/14 01:48:13;;;;;;;;;;;;;;;21.50;52.10;95170.38;1028134;28;1367;-74
2021/07/14 01:48:44;;;;;;;;;;;;;;;21.49;52.43;95168.84;1023815;28;1460;-74
2021/07/14 01:49:14;;;;;;;;;;;;;;;21.50;52.14;95173.00;1028247;28;1189;-74
2021/07/14 01:49:45;;;;;;;;;;;;;;;21.50;52.34;95165.09;1027834;28;1222;-73
2021/07/14 01:50:17;;;;;;;;;;;;;;;21.50;52.29;95173.00;1029210;28;1168;-74
2021/07/14 01:50:47;;;;;;;;;;;;;;;21.50;52.11;95166.94;1033526;28;2133;-75
2021/07/14 01:51:17;;;;;;;;;;;;;;;21.50;52.29;95165.09;1040966;28;757;-75
2021/07/14 01:51:50;;;;;;;;;;;;;;;21.52;52.35;95164.81;1043792;28;1153;-74
2021/07/14 01:52:22;;;;;;;;;;;;;;;21.51;52.18;95161.41;1037730;28;1156;-73
2021/07/14 01:52:52;;;;;;;;;;;;;;;21.51;52.28;95161.41;1036981;28;1319;-73
2021/07/14 01:53:22;;;;;;;;;;;;;;;21.52;52.12;95156.88;1035810;28;1052;-74
2021/07/14 01:53:52;;;;;;;;;;;;;;;21.51;52.29;95157.97;1032657;28;1238;-74
2021/07/14 01:54:23;;;;;;;;;;;;;;;21.51;52.18;95153.50;1036580;28;859;-74
2021/07/14 01:54:54;;;;;;;;;;;;;;;21.52;52.41;95154.25;1034641;28;2906;-74
2021/07/14 01:55:24;;;;;;;;;;;;;;;21.52;52.26;95155.03;1034358;28;2695;-73
2021/07/14 01:55:54;;;;;;;;;;;;;;;21.52;52.39;95152.41;1036607;28;962;-73
2021/07/14 01:56:25;;;;;;;;;;;;;;;21.51;52.17;95142.16;1032199;28;1958;-74
2021/07/14 01:56:55;;;;;;;;;;;;;;;21.52;52.34;95149.78;1037908;28;1200;-74
2021/07/14 01:57:28;;;;;;;;;;;;;;;21.53;52.22;95150.56;1033428;28;1342;-73
2021/07/14 01:57:58;;;;;;;;;;;;;;;21.53;52.41;95145.28;1038934;28;1120;-74
2021/07/14 01:58:29;;;;;;;;;;;;;;;21.52;52.22;95148.97;1037940;28;1253;-73
2021/07/14 01:58:59;;;;;;;;;;;;;;;21.51;52.40;95147.44;1034739;28;1180;-73
2021/07/14 01:59:30;;;;;;;;;;;;;;;21.53;52.25;95155.84;1036406;28;934;-74
2021/07/14 02:00:01;;;;;;;;;;;;;;;21.53;52.32;95156.63;1038465;28;2494;-74
2021/07/14 02:00:31;;;;;;;;;;;;;;;21.51;52.46;95153.50;1036399;28;2635;-74
2021/07/14 02:01:02;;;;;;;;;;;;;;;21.52;52.40;95148.97;1039827;28;2138;-73
2021/07/14 02:01:35;;;;;;;;;;;;;;;21.52;52.45;95159.53;1040744;28;1384;-73
2021/07/14 02:02:06;;;;;;;;;;;;;;;21.52;52.33;95146.34;1035829;28;1690;-75
2021/07/14 02:02:43;;;;;;;;;;;;;;;21.52;52.20;95154.25;1036208;28;1098;-74
2021/07/14 02:03:29;;;;;;;;;;;;;;;21.53;52.52;95163.75;1038443;28;1179;-74
2021/07/14 02:04:48;;;;;;;;;;;;;;;21.51;52.63;95153.50;1036735;28;1969;-74
2021/07/14 02:05:18;;;;;;;;;;;;;;;21.52;52.34;95154.25;1039151;28;1409;-74
2021/07/14 02:05:48;;;;;;;;;;;;;;;21.52;52.57;95154.25;1029852;28;2870;-75
2021/07/14 02:06:19;;;;;;;;;;;;;;;21.52;52.45;95157.69;1035052;28;946;-75
2021/07/14 02:06:49;;;;;;;;;;;;;;;21.51;52.25;95156.13;1036598;28;1093;-74
2021/07/14 02:07:26;;;;;;;;;;;;;;;21.51;52.27;95163.25;1038457;28;1411;-74
2021/07/14 02:07:57;;;;;;;;;;;;;;;21.51;52.61;95163.25;1046560;28;1056;-75
2021/07/14 02:08:27;;;;;;;;;;;;;;;21.50;52.34;95157.19;1047112;28;1033;-74
2021/07/14 02:08:57;;;;;;;;;;;;;;;21.51;52.31;95153.50;1043073;28;1217;-74
2021/07/14 02:09:28;;;;;;;;;;;;;;;21.51;52.50;95157.97;1040738;28;1033;-74
2021/07/14 02:09:58;;;;;;;;;;;;;;;21.51;52.25;95157.97;1036476;28;1350;-74
2021/07/14 02:10:28;;;;;;;;;;;;;;;21.51;52.27;95157.97;1031223;28;2252;-75
2021/07/14 02:10:59;;;;;;;;;;;;;;;21.51;52.26;95160.63;1028339;28;1149;-76
2021/07/14 02:11:29;;;;;;;;;;;;;;;21.51;52.35;95155.34;1027893;28;1979;-74
2021/07/14 02:11:59;;;;;;;;;;;;;;;21.50;52.44;95159.03;1036057;28;1077;-75
2021/07/14 02:12:30;;;;;;;;;;;;;;;21.49;52.48;95157.50;1033301;28;1147;-75
2021/07/14 02:13:01;;;;;;;;;;;;;;;21.49;52.45;95155.66;1037052;28;1137;-74
2021/07/14 02:13:31;;;;;;;;;;;;;;;21.51;52.40;95157.97;1044113;28;1191;-75
2021/07/14 02:14:01;;;;;;;;;;;;;;;21.50;52.42;95157.19;1038975;28;1148;-74
2021/07/14 02:14:39;;;;;;;;;;;;;;;21.50;52.44;95151.91;1040875;28;713;-74
2021/07/14 02:15:09;;;;;;;;;;;;;;;21.50;52.47;95151.13;1035607;28;2955;-75
2021/07/14 02:15:40;;;;;;;;;;;;;;;21.50;52.28;95153.75;1037170;28;3017;-73
2021/07/14 02:16:11;;;;;;;;;;;;;;;21.50;52.47;95153.75;1031880;28;1340;-74
2021/07/14 02:16:41;;;;;;;;;;;;;;;21.50;52.21;95154.56;1032795;28;879;-74
2021/07/14 02:17:12;;;;;;;;;;;;;;;21.50;52.22;95151.91;1027115;28;1228;-74
2021/07/14 02:17:45;;;;;;;;;;;;;;;21.51;52.31;95144.78;1028905;28;1594;-74
2021/07/14 02:18:16;;;;;;;;;;;;;;;21.51;52.34;95150.06;1036849;28;725;-74
2021/07/14 02:18:47;;;;;;;;;;;;;;;21.50;52.44;95145.84;1035945;28;1157;-75
2021/07/14 02:19:18;;;;;;;;;;;;;;;21.50;52.28;95145.84;1036207;28;1220;-74
2021/07/14 02:19:56;;;;;;;;;;;;;;;21.50;52.22;95153.75;1031833;28;1320;-74
2021/07/14 02:20:26;;;;;;;;;;;;;;;21.49;52.30;95141.66;1025182;28;2462;-75
2021/07/14 02:20:57;;;;;;;;;;;;;;;21.49;52.23;95144.31;1033598;28;2232;-74
2021/07/14 02:21:27;;;;;;;;;;;;;;;21.50;52.27;95140.59;1037572;28;1054;-73
2021/07/14 02:21:58;;;;;;;;;;;;;;;21.49;52.49;95144.31;1039417;28;2561;-74
2021/07/14 02:22:28;;;;;;;;;;;;;;;21.49;52.58;95136.41;1040141;28;2883;-74
2021/07/14 02:22:58;;;;;;;;;;;;;;;21.49;52.51;95136.41;1040694;28;1174;-73
2021/07/14 02:23:29;;;;;;;;;;;;;;;21.50;52.53;95125.53;1039503;28;1122;-73
2021/07/14 02:23:59;;;;;;;;;;;;;;;21.50;52.54;95132.66;1042492;28;1171;-73
2021/07/14 02:24:29;;;;;;;;;;;;;;;21.49;52.43;95125.84;1048885;28;787;-73
2021/07/14 02:25:00;;;;;;;;;;;;;;;21.50;52.44;95128.19;1043521;28;1973;-74
2021/07/14 02:25:30;;;;;;;;;;;;;;;21.50;52.36;95127.41;1043102;28;2481;-74
2021/07/14 02:26:01;;;;;;;;;;;;;;;21.50;52.29;95125.53;1039400;28;1290;-73
2021/07/14 02:26:32;;;;;;;;;;;;;;;21.50;52.64;95122.13;1036581;28;899;-73
2021/07/14 02:27:05;;;;;;;;;;;;;;;21.50;52.50;95132.66;1034368;28;1169;-73
2021/07/14 02:27:35;;;;;;;;;;;;;;;21.50;52.31;95141.38;1037236;28;1076;-73
2021/07/14 02:28:05;;;;;;;;;;;;;;;21.50;52.49;95137.94;1039654;28;1192;-73
2021/07/14 02:28:36;;;;;;;;;;;;;;;21.50;52.17;95144.00;1045249;28;1381;-73
2021/07/14 02:29:06;;;;;;;;;;;;;;;21.49;52.30;95147.72;1044967;28;1261;-73
2021/07/14 02:29:36;;;;;;;;;;;;;;;21.51;52.29;95152.72;1039259;28;1854;-74
2021/07/14 02:30:13;;;;;;;;;;;;;;;21.50;52.41;95149.28;1042323;28;2826;-72
2021/07/14 02:30:44;;;;;;;;;;;;;;;21.51;52.26;95155.34;1042243;28;2617;-74
2021/07/14 02:31:15;;;;;;;;;;;;;;;21.50;52.28;95153.75;1040620;28;1112;-74
2021/07/14 02:31:45;;;;;;;;;;;;;;;21.49;52.58;95155.66;1040821;28;1136;-72
2021/07/14 02:32:17;;;;;;;;;;;;;;;21.50;52.36;95153.75;1041332;28;1214;-73
2021/07/14 02:32:53;;;;;;;;;;;;;;;21.49;52.41;95153.00;1036480;28;1526;-74
2021/07/14 02:33:23;;;;;;;;;;;;;;;21.49;52.26;95154.84;1029153;28;1377;-73
2021/07/14 02:33:53;;;;;;;;;;;;;;;21.49;52.58;95154.84;1038482;28;1335;-74
2021/07/14 02:34:24;;;;;;;;;;;;;;;21.49;52.47;95157.50;1032222;28;1500;-73
2021/07/14 02:34:56;;;;;;;;;;;;;;;21.49;52.55;95163.56;1025423;28;1519;-73
2021/07/14 02:35:26;;;;;;;;;;;;;;;21.50;52.54;95161.69;1030323;28;1203;-73
2021/07/14 02:35:58;;;;;;;;;;;;;;;21.49;52.54;95160.91;1029434;28;2537;-75
2021/07/14 02:36:30;;;;;;;;;;;;;;;21.49;52.43;95166.19;1041488;28;805;-74
2021/07/14 02:37:02;;;;;;;;;;;;;;;21.48;52.65;95169.09;1045383;28;1569;-73
2021/07/14 02:37:51;;;;;;;;;;;;;;;21.47;52.38;95163.06;1036470;28;1348;-73
2021/07/14 02:38:28;;;;;;;;;;;;;;;21.48;52.28;95163.81;1031350;28;818;-73
2021/07/14 02:39:01;;;;;;;;;;;;;;;21.50;52.58;95166.94;1034943;28;1370;-73
2021/07/14 02:39:31;;;;;;;;;;;;;;;21.49;52.45;95165.41;1039600;28;982;-73
2021/07/14 02:40:02;;;;;;;;;;;;;;;21.47;52.60;95162.28;1043037;28;1267;-73
2021/07/14 02:40:34;;;;;;;;;;;;;;;21.47;52.58;95163.06;1035898;28;2472;-74
2021/07/14 02:41:15;;;;;;;;;;;;;;;21.48;52.59;95154.06;1039770;28;1034;-72
2021/07/14 02:41:52;;;;;;;;;;;;;;;21.47;52.27;95162.28;1044530;28;1162;-74
2021/07/14 02:42:28;;;;;;;;;;;;;;;21.48;52.65;95158.56;1038842;28;1342;-74
2021/07/14 02:42:59;;;;;;;;;;;;;;;21.47;52.66;95159.66;1040345;28;1243;-74
2021/07/14 02:43:29;;;;;;;;;;;;;;;21.47;52.63;95159.66;1038684;28;1131;-75
2021/07/14 02:44:04;;;;;;;;;;;;;;;21.47;52.67;95162.28;1038356;28;1215;-74
2021/07/14 02:44:39;;;;;;;;;;;;;;;21.47;52.53;95162.28;1040380;28;1069;-75
2021/07/14 02:45:09;;;;;;;;;;;;;;;21.46;52.51;95161.50;1039742;28;1985;-74
2021/07/14 02:45:43;;;;;;;;;;;;;;;21.46;52.61;95164.13;1032409;28;2572;-75
2021/07/14 02:46:15;;;;;;;;;;;;;;;21.46;52.57;95166.75;1031476;28;1545;-75
2021/07/14 02:46:46;;;;;;;;;;;;;;;21.47;52.66;95170.97;1028435;28;1347;-74
2021/07/14 02:47:16;;;;;;;;;;;;;;;21.47;52.72;95170.97;1031467;28;1228;-74
2021/07/14 02:47:46;;;;;;;;;;;;;;;21.46;52.67;95172.03;1028867;28;1034;-74
2021/07/14 02:48:16;;;;;;;;;;;;;;;21.47;52.63;95175.47;1032380;28;1102;-74
2021/07/14 02:48:47;;;;;;;;;;;;;;;21.46;52.38;95172.03;1032515;28;1145;-74
2021/07/14 02:49:19;;;;;;;;;;;;;;;21.45;52.67;95167.81;1036164;28;1247;-73
2021/07/14 02:49:49;;;;;;;;;;;;;;;21.46;52.52;95174.69;1032267;28;1323;-73
2021/07/14 02:50:20;;;;;;;;;;;;;;;21.45;52.62;95174.97;1036713;28;1407;-74
2021/07/14 02:50:51;;;;;;;;;;;;;;;21.45;52.53;95172.34;1034637;28;2487;-73
2021/07/14 02:51:22;;;;;;;;;;;;;;;21.45;52.54;95175.72;1032686;28;1069;-73
2021/07/14 02:51:52;;;;;;;;;;;;;;;21.46;52.36;95173.88;1032387;28;1180;-73
2021/07/14 02:52:24;;;;;;;;;;;;;;;21.45;52.65;95177.63;1028405;28;1124;-75
2021/07/14 02:52:55;;;;;;;;;;;;;;;21.45;52.72;95180.25;1033895;28;1081;-74
2021/07/14 02:53:26;;;;;;;;;;;;;;;21.46;52.65;95176.53;1039853;28;1061;-74
2021/07/14 02:53:58;;;;;;;;;;;;;;;21.45;52.59;95173.09;1035794;28;1515;-73
2021/07/14 02:54:29;;;;;;;;;;;;;;;21.45;52.65;95178.38;1032910;28;812;-74
2021/07/14 02:54:59;;;;;;;;;;;;;;;21.45;52.82;95170.47;1036801;28;1098;-74
2021/07/14 02:55:30;;;;;;;;;;;;;;;21.45;52.65;95173.09;1037168;28;1427;-74
2021/07/14 02:56:01;;;;;;;;;;;;;;;21.45;52.67;95167.06;1034344;28;2548;-74